°C

Conditions at local time : on    Forecast:

Nearby METAR Reports





EGKA - Shoreham-By-Sea, United Kingdom
Distance from station: ENE 4mi, 6km
Updated: Mon, 21-Jun-2021 1:50pm BST
Rain, Mostly cloudy
Rain, Mostly cloudy
 Wind from NNE
Wind: NNE 21 mph , 33 km/h, Gust: 32 mph , 52 km/h
Temperature: 13°C
Dew Point: 12°C
Humidity: 94%
Barometer: 1010 hPa
Summary: Rain
Clouds: Mostly Cloudy
Visibility: 2 miles , 4 km
Cloud details: Partly Cloudy 244 m
Mostly Cloudy 427 m
2021/06/21 12:50 EGKA 211250Z 02018G28KT 4000 RA SCT008 BKN014 13/12 Q1010
EGKK - London/Gatwick A, United Kingdom
Distance from station: NNE 24mi, 39km
Updated: Mon, 21-Jun-2021 1:50pm BST
Mostly Cloudy
Mostly Cloudy
 Wind from NNE
Wind: NNE 16 mph , 26 km/h
Temperature: 13°C
Dew Point: 11°C
Humidity: 88%
Barometer: 1012 hPa
Clouds: Mostly Cloudy
Visibility: 6 miles , 10 km
Cloud details: Mostly Cloudy 488 m
2021/06/21 12:50 EGKK 211250Z 03014KT 9999 BKN016 13/11 Q1012
 
EGLF - Farnborough, United Kingdom
Distance from station: NNW 37mi, 59km
Updated: Mon, 21-Jun-2021 1:50pm BST
Light rain, Drizzle, Mostly cloudy
Light rain, Drizzle, Mostly cloudy
 Wind from NNE
Wind: NNE 13 mph , 20 km/h
Temperature: 13°C
Dew Point: 11°C
Humidity: 88%
Barometer: 1012 hPa
Summary: Light rain, Drizzle
Clouds: Mostly Cloudy
Visibility: 6 miles , 9 km
Cloud details: Partly Cloudy 549 m
Mostly Cloudy 975 m
2021/06/21 12:50 EGLF 211250Z 03011KT 360V060 9000 -RADZ SCT018 BKN032 13/11 Q1012
EGVO - Odiham Raf, United Kingdom
Distance from station: NW 38mi, 61km
Updated: Mon, 21-Jun-2021 1:50pm BST
Light rain, Mostly cloudy
Light rain, Mostly cloudy
 Wind from NNE
Wind: NNE 12 mph , 19 km/h
Temperature: 12°C
Dew Point: 11°C
Humidity: 94%
Barometer: 1012 hPa
Summary: Light Rain
Clouds: Mostly Cloudy
Visibility: 6 miles , 9 km
Cloud details: Partly Cloudy 427 m
Mostly Cloudy 549 m
Mostly Cloudy 1219 m
2021/06/21 12:50 EGVO 211250Z 02010KT 9000 -RA SCT014 BKN018 BKN040 12/11 Q1012 TEMPO 7000 RA RMK GRN TEMPO GRN